Time;durP1;ratioP1;P1;durP2;ratioP2;P2;SDS_P1;SDS_P2;PMS_P1;PMS_P2;Temp;Humidity;BMP_temperature;BMP_pressure;BME280_temperature;BME280_humidity;BME280_pressure;Samples;Min_cycle;Max_cycle;Signal;HPM_P1;HPM_P2
2023/04/21 00:00:30;;;;;;;4.93;3.65;;;;;;;10.08;30.63;99340.44;7339788;19;20014;-65
2023/04/21 00:02:55;;;;;;;8.57;3.85;;;;;;;10.06;30.65;99335.22;7341323;19;20029;-68
2023/04/21 00:05:19;;;;;;;5.38;3.63;;;;;;;10.02;30.62;99338.22;7340664;19;20017;-66
2023/04/21 00:07:44;;;;;;;9.75;4.05;;;;;;;10.00;30.52;99326.84;7340804;19;20010;-67
2023/04/21 00:10:10;;;;;;;5.30;3.65;;;;;;;9.98;30.72;99340.25;7341281;19;20446;-67
2023/04/21 00:12:36;;;;;;;5.80;3.60;;;;;;;9.93;30.51;99325.59;7345141;19;20032;-67
2023/04/21 00:15:01;;;;;;;7.93;4.07;;;;;;;9.99;30.36;99333.13;7344391;19;20010;-65
2023/04/21 00:17:25;;;;;;;8.27;4.22;;;;;;;9.95;30.50;99331.63;7343871;19;20015;-66
2023/04/21 00:19:50;;;;;;;5.68;3.80;;;;;;;9.90;30.46;99328.47;7342536;19;20017;-64
2023/04/21 00:22:15;;;;;;;7.30;4.35;;;;;;;9.88;30.50;99327.75;7340958;19;20010;-67
2023/04/21 00:24:40;;;;;;;7.47;3.80;;;;;;;9.88;30.77;99325.06;7346422;19;20019;-69
2023/04/21 00:27:05;;;;;;;9.50;4.30;;;;;;;9.84;30.90;99335.94;7340814;19;20021;-70
2023/04/21 00:29:30;;;;;;;7.78;3.92;;;;;;;9.76;31.06;99330.34;7340670;19;20074;-70
2023/04/21 00:31:54;;;;;;;7.32;4.40;;;;;;;9.71;31.21;99327.16;7339605;19;20144;-69
2023/04/21 00:34:19;;;;;;;7.10;4.32;;;;;;;9.68;31.34;99330.06;7342917;19;20015;-69
2023/04/21 00:36:44;;;;;;;10.15;4.18;;;;;;;9.66;31.39;99324.00;7345250;19;20458;-67
2023/04/21 00:39:10;;;;;;;7.32;4.75;;;;;;;9.62;31.55;99325.16;7343530;19;20485;-68
2023/04/21 00:41:36;;;;;;;8.90;4.60;;;;;;;9.62;31.56;99324.31;7345761;19;20373;-66
2023/04/21 00:44:09;;;;;;;9.73;5.00;;;;;;;9.62;31.82;99322.50;7343835;19;20006;-66
2023/04/21 00:46:35;;;;;;;8.32;4.53;;;;;;;9.56;31.71;99314.13;7344335;19;20026;-65
2023/04/21 00:49:04;;;;;;;6.88;4.45;;;;;;;9.51;31.73;99311.78;7340212;19;20473;-66
2023/04/21 00:51:31;;;;;;;10.73;5.32;;;;;;;9.50;31.79;99317.22;7339435;19;20524;-65
2023/04/21 00:53:59;;;;;;;6.90;3.95;;;;;;;9.45;32.04;99312.25;7338052;19;20025;-66
2023/04/21 00:56:25;;;;;;;11.45;4.65;;;;;;;9.39;32.02;99299.38;7339150;19;20385;-68
2023/04/21 00:58:50;;;;;;;7.60;4.82;;;;;;;9.38;32.24;99308.31;7336849;19;20022;-68
2023/04/21 01:01:16;;;;;;;9.20;5.38;;;;;;;9.34;32.06;99299.72;7343530;19;20419;-68
2023/04/21 01:03:43;;;;;;;11.15;5.93;;;;;;;9.33;32.60;99305.16;7346294;19;20022;-67
2023/04/21 01:06:09;;;;;;;9.85;4.88;;;;;;;9.29;32.46;99306.31;7347479;19;20025;-66
2023/04/21 01:08:35;;;;;;;8.93;5.15;;;;;;;9.25;32.53;99307.50;7344711;19;20018;-66
2023/04/21 01:10:59;;;;;;;9.23;4.85;;;;;;;9.22;32.64;99297.94;7351253;19;20026;-66
2023/04/21 01:13:24;;;;;;;8.15;4.53;;;;;;;9.18;32.80;99307.06;7345048;19;20042;-65
2023/04/21 01:15:50;;;;;;;10.05;5.10;;;;;;;9.15;32.63;99303.78;7341143;19;20105;-69
2023/04/21 01:18:16;;;;;;;7.00;4.80;;;;;;;9.17;32.68;99304.53;7344808;19;20027;-71
2023/04/21 01:20:43;;;;;;;9.27;4.80;;;;;;;9.13;32.58;99297.75;7342729;19;20007;-73
2023/04/21 01:23:08;;;;;;;12.77;5.07;;;;;;;9.11;32.36;99300.50;7344532;19;20051;-67
2023/04/21 01:25:33;;;;;;;7.55;4.32;;;;;;;9.13;32.69;99300.41;7344074;19;20022;-67
2023/04/21 01:27:58;;;;;;;9.02;5.43;;;;;;;9.07;32.72;99289.22;7340927;19;20019;-68
2023/04/21 01:30:23;;;;;;;7.15;4.68;;;;;;;9.07;32.62;99301.66;7346987;19;20021;-67
2023/04/21 01:32:47;;;;;;;10.23;4.95;;;;;;;9.06;32.61;99300.81;7339823;19;20021;-70
2023/04/21 01:35:12;;;;;;;8.07;4.60;;;;;;;9.05;32.67;99295.59;7338747;19;20023;-68
2023/04/21 01:37:37;;;;;;;6.88;4.63;;;;;;;9.02;32.52;99295.84;7341387;19;20018;-71
2023/04/21 01:40:06;;;;;;;6.93;4.53;;;;;;;9.05;32.51;99306.25;7337232;19;20014;-67
2023/04/21 01:42:33;;;;;;;12.32;7.07;;;;;;;9.00;32.96;99295.94;7337626;19;20014;-71
2023/04/21 01:44:58;;;;;;;14.32;5.75;;;;;;;8.94;32.73;99292.84;7340034;19;20645;-70
2023/04/21 01:47:24;;;;;;;10.13;5.97;;;;;;;8.90;33.15;99289.59;7337427;19;20022;-67
2023/04/21 01:49:49;;;;;;;16.88;8.95;;;;;;;8.83;33.23;99290.09;7338035;19;20023;-73
2023/04/21 01:52:13;;;;;;;25.73;10.23;;;;;;;8.84;32.94;99297.13;7339589;19;20466;-72
2023/04/21 01:54:38;;;;;;;16.85;7.63;;;;;;;8.82;33.34;99293.72;7341273;19;20018;-78
2023/04/21 01:57:03;;;;;;;12.13;6.45;;;;;;;8.82;33.18;99302.53;7339040;19;20496;-71
2023/04/21 01:59:29;;;;;;;27.00;9.00;;;;;;;8.79;33.44;99288.63;7334600;19;20014;-74
2023/04/21 02:01:54;;;;;;;12.63;5.40;;;;;;;8.79;33.50;99291.28;7338923;19;20011;-72
2023/04/21 02:04:19;;;;;;;10.05;5.13;;;;;;;8.78;33.26;99293.09;7340326;19;20022;-69
2023/04/21 02:06:43;;;;;;;9.00;4.88;;;;;;;8.78;33.25;99295.75;7341678;19;20010;-74
2023/04/21 02:09:08;;;;;;;10.77;4.80;;;;;;;8.78;33.30;99297.56;7346640;19;20366;-72
2023/04/21 02:11:33;;;;;;;11.23;5.75;;;;;;;8.77;33.51;99295.84;7343582;19;20010;-68
2023/04/21 02:13:58;;;;;;;7.90;4.38;;;;;;;8.74;33.26;99286.28;7344882;19;20025;-73
2023/04/21 02:16:25;;;;;;;12.70;5.30;;;;;;;8.72;33.56;99288.19;7347360;19;20018;-71
2023/04/21 02:18:58;;;;;;;8.27;4.95;;;;;;;8.72;33.39;99294.34;7344507;19;20019;-68
2023/04/21 02:21:26;;;;;;;;;;;;;;;8.84;32.75;99302.44;7349566;19;20015;-68
2023/04/21 02:23:51;;;;;;;9.65;4.85;;;;;;;8.73;33.32;99300.53;7346348;19;19925;-67
2023/04/21 02:26:19;;;;;;;9.70;5.07;;;;;;;8.71;33.40;99308.59;7344108;19;20354;-68
2023/04/21 02:28:44;;;;;;;11.93;5.57;;;;;;;8.70;33.46;99301.56;7345054;19;20223;-69
2023/04/21 02:31:09;;;;;;;10.82;4.88;;;;;;;8.67;33.45;99301.81;7343396;19;20105;-74
2023/04/21 02:33:34;;;;;;;8.85;4.47;;;;;;;8.70;33.39;99292.75;7346815;19;20009;-72
2023/04/21 02:35:59;;;;;;;9.20;5.05;;;;;;;8.70;33.45;99293.59;7344773;19;20026;-67
2023/04/21 02:38:23;;;;;;;6.65;3.75;;;;;;;8.73;33.20;99297.88;7339746;19;20034;-67
2023/04/21 02:40:49;;;;;;;7.00;4.45;;;;;;;8.78;33.22;99297.56;7340813;19;20029;-72
2023/04/21 02:43:14;;;;;;;8.93;4.18;;;;;;;8.82;33.09;99293.72;7341185;19;20062;-70
2023/04/21 02:45:39;;;;;;;7.95;4.30;;;;;;;8.84;33.21;99295.31;7341220;19;20011;-74
2023/04/21 02:48:04;;;;;;;8.90;4.28;;;;;;;8.88;33.09;99293.28;7338923;19;20544;-69
2023/04/21 02:50:29;;;;;;;10.80;4.05;;;;;;;8.92;32.98;99294.75;7339325;19;20544;-71
2023/04/21 02:52:54;;;;;;;5.68;4.10;;;;;;;8.99;32.93;99291.59;7340913;19;20031;-73
2023/04/21 02:55:18;;;;;;;8.98;4.05;;;;;;;9.10;32.92;99298.81;7340471;19;20469;-74
2023/04/21 02:57:44;;;;;;;7.80;4.47;;;;;;;9.20;32.82;99285.69;7342426;19;20018;-74
2023/04/21 03:00:11;;;;;;;8.80;4.65;;;;;;;9.30;32.58;99302.69;7342856;19;20014;-74
2023/04/21 03:02:36;;;;;;;6.55;4.05;;;;;;;9.38;32.50;99285.22;7344068;19;20658;-71
2023/04/21 03:05:01;;;;;;;12.70;4.43;;;;;;;9.47;32.43;99289.03;7345158;19;20327;-74
2023/04/21 03:07:26;;;;;;;6.70;3.95;;;;;;;9.57;32.13;99290.06;7346488;19;20047;-74
2023/04/21 03:09:51;;;;;;;10.70;4.90;;;;;;;9.66;32.20;99292.06;7343463;19;20031;-67
2023/04/21 03:12:15;;;;;;;6.03;4.10;;;;;;;9.78;31.85;99283.16;7347121;19;20675;-69
2023/04/21 03:14:42;;;;;;;9.98;5.35;;;;;;;9.90;31.95;99286.72;7346772;19;20014;-69
2023/04/21 03:17:06;;;;;;;8.27;3.78;;;;;;;9.98;31.62;99288.81;7349989;19;20014;-69
2023/04/21 03:19:31;;;;;;;5.05;3.90;;;;;;;10.15;31.36;99299.91;7344746;19;20014;-66
2023/04/21 03:21:56;;;;;;;5.63;4.00;;;;;;;10.25;31.28;99294.78;7345247;19;20014;-66
2023/04/21 03:24:21;;;;;;;4.43;3.40;;;;;;;10.35;31.07;99295.78;7354294;19;20038;-71
2023/04/21 03:26:46;;;;;;;5.20;3.63;;;;;;;10.45;30.86;99296.78;7363558;19;20030;-69
2023/04/21 03:29:11;;;;;;;6.60;3.88;;;;;;;10.52;30.90;99302.47;7361253;19;20145;-71
2023/04/21 03:31:36;;;;;;;6.03;3.88;;;;;;;10.57;30.68;99302.13;7344151;19;20098;-70
2023/04/21 03:34:01;;;;;;;9.75;4.57;;;;;;;10.67;30.46;99297.78;7346869;19;20022;-71
2023/04/21 03:36:27;;;;;;;5.75;3.65;;;;;;;10.73;30.51;99300.81;7345605;19;20022;-70
2023/04/21 03:38:51;;;;;;;5.00;3.63;;;;;;;10.82;30.56;99299.28;7238563;19;20022;-69
2023/04/21 03:41:16;;;;;;;7.40;4.18;;;;;;;10.92;30.24;99300.25;7345527;19;20022;-68
2023/04/21 03:43:41;;;;;;;12.15;4.15;;;;;;;11.02;30.30;99300.38;7345384;19;20023;-67
2023/04/21 03:46:06;;;;;;;9.95;4.82;;;;;;;11.12;30.27;99307.53;7342235;19;20022;-69
2023/04/21 03:48:30;;;;;;;10.57;4.38;;;;;;;11.21;30.17;99300.59;7343941;19;20014;-70
2023/04/21 03:50:55;;;;;;;6.75;4.22;;;;;;;11.30;30.18;99302.53;7346094;19;20014;-70
2023/04/21 03:53:20;;;;;;;8.60;4.32;;;;;;;11.40;29.90;99302.66;7344038;19;20442;-70
2023/04/21 03:55:47;;;;;;;9.93;4.35;;;;;;;11.47;29.90;99302.03;7344874;19;20074;-71
2023/04/21 03:58:13;;;;;;;6.82;4.03;;;;;;;11.60;29.69;99299.25;7342937;19;20049;-69
2023/04/21 04:00:37;;;;;;;9.88;5.40;;;;;;;11.70;29.73;99300.19;7348185;19;20014;-71
2023/04/21 04:03:02;;;;;;;14.38;4.20;;;;;;;11.84;29.51;99301.75;7345734;19;20461;-68
2023/04/21 04:05:27;;;;;;;6.45;3.95;;;;;;;12.00;29.55;99299.50;7346193;19;20011;-69
2023/04/21 04:07:51;;;;;;;7.90;4.57;;;;;;;12.17;29.25;99296.31;7341900;19;20014;-70
2023/04/21 04:10:17;;;;;;;7.78;4.25;;;;;;;12.33;29.17;99293.16;7342080;19;20102;-70
2023/04/21 04:12:42;;;;;;;7.47;4.85;;;;;;;12.49;29.13;99290.06;7340318;19;20463;-70
2023/04/21 04:15:07;;;;;;;11.40;5.28;;;;;;;12.72;28.99;99287.13;7340137;19;20101;-69
2023/04/21 04:17:33;;;;;;;10.43;4.40;;;;;;;12.99;28.69;99283.03;7345501;19;20334;-71
2023/04/21 04:19:57;;;;;;;8.43;4.78;;;;;;;13.20;28.46;99283.03;7339792;19;20319;-70
2023/04/21 04:22:22;;;;;;;14.18;5.07;;;;;;;13.42;28.48;99285.50;7342683;19;20014;-72
2023/04/21 04:24:47;;;;;;;11.13;4.78;;;;;;;13.61;28.00;99264.13;7343607;19;20019;-70
2023/04/21 04:27:15;;;;;;;15.65;5.60;;;;;;;13.88;27.85;99276.00;7340895;19;20023;-69
2023/04/21 04:29:40;;;;;;;14.27;4.93;;;;;;;14.07;27.57;99284.06;7338691;19;20023;-69
2023/04/21 04:32:05;;;;;;;7.30;4.07;;;;;;;14.26;27.45;99283.19;7344757;19;20126;-70
2023/04/21 04:34:30;;;;;;;13.10;4.47;;;;;;;14.40;27.09;99278.28;7345661;19;20022;-70
2023/04/21 04:36:56;;;;;;;18.70;6.35;;;;;;;14.61;26.81;99279.94;7344062;19;20019;-69
2023/04/21 04:39:21;;;;;;;11.05;4.40;;;;;;;14.78;26.47;99282.75;7344177;19;20019;-69
2023/04/21 04:41:46;;;;;;;8.48;5.18;;;;;;;14.96;26.43;99280.16;7340902;19;20038;-68
2023/04/21 04:44:10;;;;;;;7.75;4.40;;;;;;;15.21;26.61;99267.91;7340725;19;20003;-67
2023/04/21 04:46:35;;;;;;;12.32;4.18;;;;;;;15.46;26.39;99274.44;7341193;19;20520;-66
2023/04/21 04:49:00;;;;;;;9.57;4.88;;;;;;;15.72;25.98;99278.13;7339547;19;20077;-67
2023/04/21 04:51:26;;;;;;;7.15;4.07;;;;;;;15.96;25.81;99278.38;7340832;19;20043;-66
2023/04/21 04:53:50;;;;;;;7.85;4.57;;;;;;;16.12;25.16;99280.41;7343278;19;20027;-65
2023/04/21 04:56:15;;;;;;;12.18;4.57;;;;;;;16.20;25.32;99279.63;7340094;19;20028;-69
2023/04/21 04:58:40;;;;;;;12.35;4.82;;;;;;;16.33;25.55;99274.69;7341930;19;20437;-67
2023/04/21 05:01:15;;;;;;;6.03;3.88;;;;;;;16.64;25.37;99276.00;7340989;19;20015;-66
2023/04/21 05:03:41;;;;;;;14.43;4.90;;;;;;;16.83;25.26;99269.53;7342454;19;20018;-65
2023/04/21 05:06:05;;;;;;;8.77;4.13;;;;;;;17.19;25.17;99269.41;7339990;19;20082;-66
2023/04/21 05:08:30;;;;;;;9.93;4.13;;;;;;;17.66;24.04;99273.38;7345799;19;20011;-67
2023/04/21 05:10:55;;;;;;;13.23;5.00;;;;;;;17.99;23.22;99268.88;7343447;19;20153;-67
2023/04/21 05:13:20;;;;;;;8.18;4.13;;;;;;;18.24;22.92;99252.75;7343671;19;20062;-66
2023/04/21 05:15:44;;;;;;;5.72;4.05;;;;;;;18.36;22.93;99264.88;7347826;19;20014;-68
2023/04/21 05:18:09;;;;;;;5.22;3.53;;;;;;;18.35;22.88;99255.94;7358327;19;20011;-70
2023/04/21 05:20:34;;;;;;;8.38;4.75;;;;;;;18.32;22.76;99253.56;7353140;19;20034;-70
2023/04/21 05:22:58;;;;;;;7.78;4.70;;;;;;;18.47;22.55;99248.34;7346821;19;20018;-73
2023/04/21 05:25:23;;;;;;;7.85;4.82;;;;;;;18.93;22.46;99251.38;7342018;19;20045;-71
2023/04/21 05:27:48;;;;;;;12.80;4.53;;;;;;;19.40;21.99;99238.72;7344753;19;20018;-69
2023/04/21 05:30:12;;;;;;;7.22;4.47;;;;;;;19.80;21.77;99244.94;7344371;19;20018;-68
2023/04/21 05:32:37;;;;;;;6.47;4.13;;;;;;;20.26;21.85;99241.25;7340787;19;20687;-69
2023/04/21 05:35:02;;;;;;;9.52;4.53;;;;;;;20.61;21.38;99245.22;7345009;19;20029;-69
2023/04/21 05:37:29;;;;;;;9.15;3.88;;;;;;;20.76;20.86;99244.41;7340836;19;20026;-69
2023/04/21 05:39:54;;;;;;;7.63;3.60;;;;;;;20.97;20.76;99237.25;7339052;19;20019;-73
2023/04/21 05:42:20;;;;;;;10.52;4.18;;;;;;;21.26;20.36;99249.97;7347418;19;20018;-70
2023/04/21 05:44:45;;;;;;;13.95;4.07;;;;;;;21.62;19.96;99241.06;7348598;19;20505;-70
2023/04/21 05:47:09;;;;;;;7.57;3.90;;;;;;;21.85;19.64;99241.75;7350107;19;20536;-73
2023/04/21 05:49:34;;;;;;;6.20;4.25;;;;;;;21.85;19.33;99230.06;7351657;19;20011;-70
2023/04/21 05:51:59;;;;;;;7.95;4.25;;;;;;;21.88;19.11;99238.66;7353040;19;20010;-71
2023/04/21 05:54:24;;;;;;;11.55;4.20;;;;;;;21.88;19.43;99235.09;7352713;19;20474;-71
2023/04/21 05:56:48;;;;;;;7.78;4.35;;;;;;;21.92;19.29;99231.81;7345644;19;20084;-77
2023/04/21 05:59:13;;;;;;;13.00;5.60;;;;;;;22.07;19.06;99232.63;7343922;19;20765;-70
2023/04/21 06:01:38;;;;;;;11.98;4.45;;;;;;;21.96;19.22;99224.97;7348204;19;20018;-77
2023/04/21 06:04:03;;;;;;;9.57;3.95;;;;;;;22.06;18.98;99228.22;7345486;19;20062;-78
2023/04/21 06:06:27;;;;;;;8.00;3.85;;;;;;;22.54;18.75;99227.63;7346835;19;20327;-68
2023/04/21 06:08:52;;;;;;;6.07;3.60;;;;;;;23.21;18.82;99219.78;7346158;19;20018;-68
2023/04/21 06:11:17;;;;;;;8.00;3.80;;;;;;;23.80;18.31;99219.22;7348595;19;20011;-68
2023/04/21 06:13:41;;;;;;;9.18;4.00;;;;;;;24.27;17.84;99225.66;7348603;19;20446;-68
2023/04/21 06:16:06;;;;;;;11.48;3.92;;;;;;;24.90;17.62;99221.44;7348304;19;20659;-69
2023/04/21 06:18:31;;;;;;;6.50;3.55;;;;;;;25.30;17.35;99216.75;7348424;19;20021;-69
2023/04/21 06:20:55;;;;;;;8.68;3.88;;;;;;;25.75;16.98;99208.63;7347146;19;20023;-71
2023/04/21 06:23:21;;;;;;;6.50;3.67;;;;;;;26.56;16.45;99215.03;7349752;19;20418;-69
2023/04/21 06:25:46;;;;;;;11.10;4.72;;;;;;;26.78;16.35;99237.34;7350231;19;20010;-70
2023/04/21 06:28:10;;;;;;;10.18;4.60;;;;;;;27.29;16.17;99214.38;7347287;19;20363;-70
2023/04/21 06:30:35;;;;;;;7.35;3.67;;;;;;;27.91;15.70;99220.56;7346747;19;20345;-67
2023/04/21 06:33:00;;;;;;;11.20;6.47;;;;;;;28.63;15.84;99230.47;7347920;19;20519;-73
2023/04/21 06:35:25;;;;;;;8.75;4.95;;;;;;;28.99;15.20;99214.91;7349475;19;20139;-72
2023/04/21 06:37:49;;;;;;;7.57;4.47;;;;;;;29.49;14.93;99215.22;7345630;19;20017;-68
2023/04/21 06:40:17;;;;;;;4.25;3.83;;;;;;;29.84;14.64;99213.19;7347323;19;20468;-71
2023/04/21 06:42:41;;;;;;;5.20;3.88;;;;;;;29.86;14.61;99201.97;7344340;19;20015;-73
2023/04/21 06:45:07;;;;;;;11.05;4.05;;;;;;;29.61;14.74;99207.78;7349351;19;20018;-71
2023/04/21 06:47:32;;;;;;;4.40;3.72;;;;;;;29.59;14.77;99201.69;7350181;19;20114;-72
2023/04/21 06:49:56;;;;;;;4.20;3.67;;;;;;;29.91;14.72;99208.38;7353881;19;20014;-71
2023/04/21 06:52:21;;;;;;;4.90;4.15;;;;;;;30.26;14.22;99204.66;7349070;19;20021;-71
2023/04/21 06:54:46;;;;;;;7.53;4.00;;;;;;;30.81;14.14;99209.47;7355080;19;20014;-70
2023/04/21 06:57:10;;;;;;;5.93;4.00;;;;;;;30.99;13.57;99204.53;7344823;19;20023;-69
2023/04/21 06:59:35;;;;;;;5.85;3.65;;;;;;;31.35;13.67;99205.06;7341372;19;20457;-67
2023/04/21 07:02:00;;;;;;;4.63;3.33;;;;;;;31.07;13.61;99206.00;7345834;19;20365;-68
2023/04/21 07:04:28;;;;;;;3.75;3.45;;;;;;;30.55;13.60;99203.56;7346272;19;20024;-68
2023/04/21 07:06:53;;;;;;;8.45;4.20;;;;;;;30.16;13.89;99199.81;7346281;19;20018;-69
2023/04/21 07:09:18;;;;;;;9.70;3.53;;;;;;;30.11;13.71;99193.41;7344902;19;20025;-69
2023/04/21 07:11:42;;;;;;;5.68;3.75;;;;;;;30.07;13.88;99192.22;7344962;19;20021;-70
2023/04/21 07:14:07;;;;;;;5.00;3.65;;;;;;;30.57;13.78;99193.13;7343351;19;20026;-72
2023/04/21 07:16:32;;;;;;;5.32;3.47;;;;;;;31.38;13.61;99180.56;7342232;19;20043;-72
2023/04/21 07:18:57;;;;;;;11.95;4.32;;;;;;;31.99;13.32;99197.88;7340363;19;20007;-71
2023/04/21 07:21:22;;;;;;;4.82;4.32;;;;;;;32.07;12.97;99189.13;7343093;19;20014;-71
2023/04/21 07:23:46;;;;;;;5.45;3.67;;;;;;;32.53;12.93;99185.97;7343855;19;20342;-72
2023/04/21 07:26:11;;;;;;;9.00;4.25;;;;;;;32.91;12.77;99188.53;7346927;19;20062;-71
2023/04/21 07:28:37;;;;;;;8.27;4.10;;;;;;;33.38;12.74;99179.44;7344720;19;20015;-70
2023/04/21 07:31:02;;;;;;;5.43;4.05;;;;;;;34.38;12.23;99180.84;7346423;19;20510;-71
2023/04/21 07:33:27;;;;;;;6.28;4.85;;;;;;;35.30;11.89;99176.06;7342832;19;20501;-72
2023/04/21 07:35:51;;;;;;;13.63;5.03;;;;;;;36.06;11.39;99181.25;7342439;19;20047;-71
2023/04/21 07:38:16;;;;;;;10.23;4.70;;;;;;;35.84;10.96;99187.22;7341582;19;20022;-70
2023/04/21 07:40:41;;;;;;;7.70;4.28;;;;;;;35.62;11.23;99187.59;7341706;19;20421;-71
2023/04/21 07:43:06;;;;;;;9.23;6.65;;;;;;;35.79;11.24;99169.75;7346039;19;20018;-72
2023/04/21 07:45:31;;;;;;;11.52;5.43;;;;;;;36.04;11.36;99164.06;7342359;19;20017;-71
2023/04/21 07:47:55;;;;;;;7.30;4.30;;;;;;;36.44;11.16;99179.66;7344472;19;20017;-71
2023/04/21 07:50:20;;;;;;;6.32;4.55;;;;;;;36.59;10.85;99173.09;7345130;19;20061;-71
2023/04/21 07:52:46;;;;;;;7.47;4.70;;;;;;;36.83;10.91;99162.09;7342231;19;20010;-72
2023/04/21 07:55:11;;;;;;;7.05;4.40;;;;;;;36.95;10.97;99168.91;7342020;19;20046;-72
2023/04/21 07:57:37;;;;;;;7.75;4.72;;;;;;;36.70;10.62;99163.59;7342789;19;20011;-71
2023/04/21 08:00:02;;;;;;;5.05;4.53;;;;;;;36.25;11.18;99160.06;7342639;19;20022;-72
2023/04/21 08:02:37;;;;;;;9.45;4.32;;;;;;;36.13;10.98;99156.78;7343143;19;20010;-73
2023/04/21 08:05:02;;;;;;;18.35;5.15;;;;;;;36.61;10.92;99154.22;7343116;19;20010;-70
2023/04/21 08:07:28;;;;;;;5.88;4.90;;;;;;;36.82;10.68;99150.13;7342903;19;20018;-71
2023/04/21 08:09:53;;;;;;;8.60;4.72;;;;;;;36.43;10.70;99153.00;7341906;19;20464;-71
2023/04/21 08:12:18;;;;;;;7.53;5.03;;;;;;;36.35;10.81;99142.50;7339910;19;20585;-72
2023/04/21 08:14:42;;;;;;;7.15;5.22;;;;;;;36.94;10.69;99133.06;7339813;19;20018;-73
2023/04/21 08:17:07;;;;;;;10.23;5.05;;;;;;;37.32;10.55;99131.28;7344731;19;20031;-71
2023/04/21 08:19:32;;;;;;;6.03;4.65;;;;;;;37.00;10.47;99143.84;7338516;19;20085;-72
2023/04/21 08:21:57;;;;;;;9.13;5.90;;;;;;;36.79;10.61;99145.19;7341161;19;20351;-72
2023/04/21 08:24:22;;;;;;;6.57;4.93;;;;;;;36.66;10.70;99137.50;7341273;19;20025;-73
2023/04/21 08:26:46;;;;;;;8.80;4.78;;;;;;;37.16;10.57;99133.41;7341662;19;20037;-73
2023/04/21 08:29:12;;;;;;;6.18;5.28;;;;;;;37.67;10.31;99124.44;7341476;19;20018;-72
2023/04/21 08:31:37;;;;;;;7.25;4.70;;;;;;;38.17;9.96;99125.66;7339753;19;20462;-72
2023/04/21 08:34:02;;;;;;;12.75;5.55;;;;;;;38.43;9.95;99135.25;7343834;19;20454;-71
2023/04/21 08:36:27;;;;;;;4.97;4.47;;;;;;;38.34;9.89;99131.50;7339500;19;20078;-72
2023/04/21 08:38:52;;;;;;;6.20;4.38;;;;;;;38.72;9.99;99131.41;7338321;19;20013;-72
2023/04/21 08:41:18;;;;;;;8.65;5.90;;;;;;;39.12;10.06;99132.63;7340586;19;20014;-73
2023/04/21 08:43:43;;;;;;;6.53;4.50;;;;;;;39.32;9.89;99114.66;7340744;19;20047;-72
2023/04/21 08:46:08;;;;;;;6.93;4.90;;;;;;;39.36;9.40;99121.28;7339457;19;20023;-70
2023/04/21 08:48:37;;;;;;;6.00;5.25;;;;;;;39.56;9.94;99115.28;7343541;19;20465;-75
2023/04/21 08:51:02;;;;;;;5.07;4.63;;;;;;;38.55;9.84;99104.16;7343698;19;20038;-72
2023/04/21 08:53:27;;;;;;;4.45;4.05;;;;;;;38.48;9.98;99095.34;7344094;19;20018;-71
2023/04/21 08:55:54;;;;;;;7.43;4.55;;;;;;;39.13;9.84;99093.28;7340970;19;20007;-74
2023/04/21 08:58:21;;;;;;;6.80;4.72;;;;;;;38.89;9.70;99094.59;7340193;19;20369;-72
2023/04/21 09:00:46;;;;;;;8.68;5.07;;;;;;;38.97;9.81;99089.16;7340633;19;20010;-73
2023/04/21 09:03:11;;;;;;;5.85;4.57;;;;;;;38.86;9.60;99087.69;7339242;19;20018;-75
2023/04/21 09:05:36;;;;;;;7.53;4.68;;;;;;;39.15;9.84;99084.63;7339770;19;20021;-76
2023/04/21 09:08:10;;;;;;;7.18;5.05;;;;;;;40.13;9.53;99091.34;7339101;19;20010;-73
2023/04/21 09:10:48;;;;;;;9.60;5.20;;;;;;;40.97;9.72;99088.56;7340325;19;20102;-74
2023/04/21 09:13:14;;;;;;;5.63;5.07;;;;;;;40.99;9.35;99083.50;7338553;19;20014;-71
2023/04/21 09:15:44;;;;;;;6.07;5.50;;;;;;;41.62;9.32;99183.00;7345279;19;20030;-72
2023/04/21 09:18:22;;;;;;;5.70;5.20;;;;;;;41.83;9.06;99162.78;7347134;19;20086;-74
2023/04/21 09:20:49;;;;;;;7.43;5.55;;;;;;;41.80;9.14;99163.41;7347500;19;20107;-74
2023/04/21 09:23:14;;;;;;;9.88;5.90;;;;;;;42.41;8.94;99069.88;7345757;19;20497;-72
2023/04/21 09:25:41;;;;;;;7.38;5.53;;;;;;;41.69;8.57;99076.97;7345456;19;20331;-74
2023/04/21 09:28:10;;;;;;;10.70;6.00;;;;;;;41.29;8.97;99072.59;7347446;19;20026;-73
2023/04/21 09:30:36;;;;;;;11.70;5.90;;;;;;;40.22;9.35;99063.47;7347820;19;20026;-75
2023/04/21 09:33:01;;;;;;;6.28;5.68;;;;;;;40.20;9.29;99054.59;7350907;19;20010;-73
2023/04/21 09:35:28;;;;;;;9.88;6.63;;;;;;;40.41;9.27;99061.31;7346233;19;20314;-74
2023/04/21 09:37:52;;;;;;;5.75;5.28;;;;;;;39.72;9.52;99055.19;7346512;19;20303;-73
2023/04/21 09:40:18;;;;;;;5.65;5.07;;;;;;;38.79;9.83;99054.66;7347367;19;20010;-72
2023/04/21 09:42:42;;;;;;;6.20;4.97;;;;;;;38.22;9.92;99050.41;7347071;19;20476;-74
2023/04/21 09:45:09;;;;;;;7.25;5.10;;;;;;;38.30;10.04;99034.94;7347048;19;20346;-72
2023/04/21 09:47:44;;;;;;;8.10;5.32;;;;;;;39.00;10.00;99029.19;7345580;19;20104;-75
2023/04/21 09:50:11;;;;;;;8.63;5.20;;;;;;;39.82;9.60;99035.41;7346940;19;20018;-74
2023/04/21 09:52:38;;;;;;;9.98;5.47;;;;;;;39.98;9.86;99040.63;7346882;19;20339;-69
2023/04/21 09:55:04;;;;;;;6.22;5.57;;;;;;;39.50;9.48;99025.31;7347171;19;20019;-72
2023/04/21 09:57:31;;;;;;;8.13;5.20;;;;;;;39.30;9.62;99022.94;7346708;19;20010;-72
2023/04/21 10:00:06;;;;;;;6.30;5.18;;;;;;;39.65;9.83;99021.31;7347041;19;20049;-75
2023/04/21 10:02:34;;;;;;;5.50;5.00;;;;;;;39.18;9.74;99034.63;7352621;19;20011;-76
2023/04/21 10:05:00;;;;;;;5.47;4.75;;;;;;;39.67;9.84;99040.53;7347885;19;20018;-74
2023/04/21 10:07:24;;;;;;;6.80;5.13;;;;;;;39.74;9.58;99024.97;7345741;19;20046;-72
2023/04/21 10:09:57;;;;;;;6.35;5.63;;;;;;;40.23;9.73;99018.47;7348926;19;20022;-70
2023/04/21 10:12:23;;;;;;;5.45;5.03;;;;;;;40.44;9.46;99013.19;7348040;19;20737;-75
2023/04/21 10:14:55;;;;;;;6.10;5.05;;;;;;;41.09;9.61;99006.84;7348093;19;20042;-75
2023/04/21 10:17:25;;;;;;;12.20;5.00;;;;;;;39.23;10.42;98991.88;7347119;19;20022;-72
2023/04/21 10:19:56;;;;;;;5.30;4.80;;;;;;;36.95;11.06;98999.41;7344130;19;20045;-73
2023/04/21 10:22:32;;;;;;;4.60;4.20;;;;;;;34.50;12.20;99008.94;7349136;19;20424;-74
2023/04/21 10:25:01;;;;;;;4.28;3.85;;;;;;;31.40;13.74;98999.31;7350681;19;20018;-73
2023/04/21 10:27:40;;;;;;;5.20;3.47;;;;;;;29.93;14.32;98994.56;7345609;19;20011;-74
2023/04/21 10:30:24;;;;;;;9.73;3.60;;;;;;;28.16;15.21;98988.28;7349831;19;20010;-74
2023/04/21 10:33:02;;;;;;;6.75;3.53;;;;;;;26.70;16.19;98983.34;7345979;19;20010;-73
2023/04/21 10:35:52;;;;;;;6.10;3.45;;;;;;;25.63;16.55;98982.72;7347568;19;20019;-73
2023/04/21 10:38:39;;;;;;;4.30;3.28;;;;;;;24.70;17.10;98986.19;7344976;19;20026;-72
2023/04/21 10:41:41;;;;;;;4.22;3.22;;;;;;;23.57;17.95;98982.81;7344109;19;20419;-72
2023/04/21 10:44:08;;;;;;;5.63;2.80;;;;;;;21.69;20.03;98979.63;7344082;19;20524;-71
2023/04/21 10:46:38;;;;;;;6.88;3.22;;;;;;;21.11;21.28;98977.19;7346893;19;20486;-72
2023/04/21 10:52:34;;;;;;;5.82;2.80;;;;;;;20.39;21.74;98983.47;7345940;19;20148;-72
2023/04/21 10:55:09;;;;;;;3.08;2.83;;;;;;;20.06;22.17;98976.72;7343602;19;20042;-72
2023/04/21 10:57:34;;;;;;;3.22;2.50;;;;;;;19.69;22.50;98978.44;7342123;19;20043;-77
2023/04/21 10:59:59;;;;;;;2.80;2.53;;;;;;;19.50;22.73;98981.69;7342589;19;20034;-76
2023/04/21 11:02:26;;;;;;;4.05;2.38;;;;;;;19.30;23.19;98975.06;7343988;19;20123;-78
2023/04/21 11:04:52;;;;;;;9.20;2.88;;;;;;;19.23;23.56;98975.78;7345582;19;20006;-73
2023/04/21 11:07:21;;;;;;;6.03;2.60;;;;;;;19.27;23.97;98975.44;7344800;19;20017;-74
2023/04/21 11:09:49;;;;;;;4.88;2.30;;;;;;;19.13;23.55;98977.03;7347001;19;20029;-73
2023/04/21 11:12:17;;;;;;;4.43;3.13;;;;;;;19.07;23.48;98977.78;7344408;19;20462;-74
2023/04/21 11:14:43;;;;;;;2.90;2.17;;;;;;;18.90;23.13;98977.03;7347476;19;20374;-74
2023/04/21 11:17:14;;;;;;;6.55;4.90;;;;;;;18.81;23.51;98980.81;7346428;19;20034;-77
2023/04/21 11:19:39;;;;;;;6.40;3.40;;;;;;;18.60;23.74;98967.09;7346152;19;20354;-76
2023/04/21 11:22:04;;;;;;;4.00;2.60;;;;;;;18.46;23.99;98955.16;7346457;19;20021;-76
2023/04/21 11:24:30;;;;;;;5.53;2.70;;;;;;;18.57;24.18;98964.72;7347260;19;20031;-74
2023/04/21 11:26:55;;;;;;;6.68;2.75;;;;;;;18.74;24.33;98955.53;7350714;19;20043;-78
2023/04/21 11:29:20;;;;;;;7.03;2.45;;;;;;;19.06;24.63;98947.22;7349895;19;20014;-72
2023/04/21 11:31:47;;;;;;;5.07;3.30;;;;;;;19.34;24.17;98952.88;7346801;19;20082;-68